Time;durP1;ratioP1;P1;durP2;ratioP2;P2;SDS_P1;SDS_P2;PMS_P1;PMS_P2;Temp;Humidity;BMP_temperature;BMP_pressure;BME280_temperature;BME280_humidity;BME280_pressure;Samples;Min_cycle;Max_cycle;Signal;HPM_P1;HPM_P2
2021/12/31 00:02:26;;;;;;;7.38;3.10;;;;;;;12.09;100.00;100914.81;4869848;29;20438;-88
2021/12/31 00:04:53;;;;;;;5.32;2.83;;;;;;;12.15;100.00;100931.31;4870106;29;20061;-89
2021/12/31 00:07:20;;;;;;;4.93;2.63;;;;;;;12.17;100.00;100932.09;4872605;29;20082;-88
2021/12/31 00:09:47;;;;;;;4.90;2.72;;;;;;;12.17;100.00;100941.88;4866927;29;20057;-88
2021/12/31 00:12:14;;;;;;;3.83;2.72;;;;;;;12.16;100.00;100933.03;4871233;29;20144;-88
2021/12/31 00:14:40;;;;;;;5.43;2.92;;;;;;;12.16;100.00;100925.06;4865989;29;20056;-88
2021/12/31 00:17:07;;;;;;;4.97;3.20;;;;;;;12.16;100.00;100930.38;4869896;29;20136;-88
2021/12/31 00:19:40;;;;;;;4.45;2.70;;;;;;;12.10;100.00;100916.53;4869498;29;20124;-88
2021/12/31 00:24:55;;;;;;;7.75;2.42;;;;;;;12.19;100.00;100938.22;4877733;29;20064;-89
2021/12/31 00:27:23;;;;;;;4.80;2.45;;;;;;;12.08;100.00;100913.94;4881291;29;20134;-88
2021/12/31 00:29:55;;;;;;;5.05;2.10;;;;;;;12.01;100.00;100887.72;4882705;29;20069;-86
2021/12/31 00:32:22;;;;;;;4.45;2.30;;;;;;;12.18;100.00;100915.25;4874746;29;20053;-87
2021/12/31 00:34:49;;;;;;;4.20;2.22;;;;;;;12.36;100.00;100942.75;4870961;29;20080;-88
2021/12/31 00:37:32;;;;;;;4.95;2.33;;;;;;;12.24;100.00;100914.13;4873671;29;20148;-87
2021/12/31 00:40:00;;;;;;;4.57;2.10;;;;;;;12.48;100.00;100955.47;4870624;29;20055;-87
2021/12/31 00:42:27;;;;;;;5.95;2.20;;;;;;;12.34;100.00;100919.84;4871484;29;20147;-88
2021/12/31 00:44:54;;;;;;;4.70;2.20;;;;;;;12.44;100.00;100948.56;4870525;29;20109;-87
2021/12/31 00:47:21;;;;;;;5.07;2.40;;;;;;;12.45;100.00;100938.81;4869240;29;20061;-88
2021/12/31 00:49:52;;;;;;;4.25;2.08;;;;;;;12.55;100.00;100938.34;4869699;29;20156;-87
2021/12/31 00:52:19;;;;;;;7.28;2.50;;;;;;;12.45;100.00;100936.16;4874670;29;20056;-87
2021/12/31 00:54:45;;;;;;;5.45;2.00;;;;;;;12.54;100.00;100957.88;4872008;29;20532;-88
2021/12/31 00:57:12;;;;;;;2.97;1.90;;;;;;;12.54;100.00;100951.69;4872979;29;21265;-87
2021/12/31 00:59:40;;;;;;;6.55;2.30;;;;;;;12.55;100.00;100938.34;4870553;29;20045;-87
2021/12/31 01:02:10;;;;;;;6.25;1.90;;;;;;;12.59;100.00;100945.22;4873977;29;20053;-87
2021/12/31 01:04:38;;;;;;;3.90;2.60;;;;;;;12.48;100.00;100925.41;4869897;29;20071;-87
2021/12/31 01:07:04;;;;;;;3.78;1.95;;;;;;;12.53;100.00;100937.53;4875386;29;20082;-87
2021/12/31 01:09:32;;;;;;;4.22;2.03;;;;;;;12.40;100.00;100924.91;4874495;29;20061;-87
2021/12/31 01:12:00;;;;;;;5.40;2.05;;;;;;;12.53;100.00;100948.16;4873142;29;20077;-88
2021/12/31 01:17:05;;;;;;;4.35;1.95;;;;;;;12.46;100.00;100929.91;4874218;29;20125;-87
2021/12/31 01:19:48;;;;;;;3.63;1.70;;;;;;;12.19;100.00;100890.44;4873010;29;20152;-88
2021/12/31 01:22:26;;;;;;;4.53;2.10;;;;;;;12.49;100.00;100954.53;4884953;29;20049;-87
2021/12/31 01:24:53;;;;;;;5.10;2.30;;;;;;;12.45;100.00;100949.44;4887208;29;20056;-87
2021/12/31 01:27:20;;;;;;;5.43;2.13;;;;;;;12.39;100.00;100953.25;4875936;29;20056;-87
2021/12/31 01:29:47;;;;;;;4.85;2.00;;;;;;;12.45;100.00;100949.44;4871721;29;20099;-87
2021/12/31 01:32:14;;;;;;;6.32;2.50;;;;;;;12.29;100.00;100931.53;4877168;29;20066;-88
2021/12/31 01:34:41;;;;;;;5.28;2.25;;;;;;;12.45;100.00;100968.03;4876877;29;20139;-88
2021/12/31 01:37:08;;;;;;;3.13;2.00;;;;;;;12.31;100.00;100934.13;4869277;29;20077;-87
2021/12/31 01:39:35;;;;;;;9.52;2.30;;;;;;;12.35;100.00;100933.06;4866118;29;20135;-87
2021/12/31 01:42:06;;;;;;;5.22;2.20;;;;;;;12.43;100.00;100948.66;4853216;29;20081;-87
2021/12/31 01:44:39;;;;;;;6.10;2.45;;;;;;;12.45;100.00;100945.00;4869592;29;20060;-87
2021/12/31 01:47:11;;;;;;;4.13;2.00;;;;;;;12.38;100.00;100934.72;4868428;29;20057;-88
2021/12/31 01:49:42;;;;;;;6.25;2.47;;;;;;;12.39;100.00;100939.13;4869152;29;20103;-88
2021/12/31 01:52:09;;;;;;;;;;;;;;;12.49;100.00;100961.66;4872127;29;20064;-87
2021/12/31 01:54:38;;;;;;;6.18;2.45;;;;;;;12.54;100.00;100963.19;4873425;29;19952;-87
2021/12/31 01:57:08;;;;;;;6.55;2.33;;;;;;;12.55;100.00;100969.34;4872924;29;20049;-87
2021/12/31 01:59:36;;;;;;;5.28;2.15;;;;;;;12.49;100.00;100959.00;4870334;29;20482;-88
2021/12/31 02:02:08;;;;;;;4.78;2.40;;;;;;;12.50;100.00;100968.69;4875397;29;20085;-88
2021/12/31 02:04:38;;;;;;;8.25;2.63;;;;;;;12.61;100.00;100977.03;4874885;29;20120;-87
2021/12/31 02:07:06;;;;;;;6.28;2.13;;;;;;;12.60;99.12;100967.31;4871878;29;20063;-87
2021/12/31 02:09:37;;;;;;;11.18;2.28;;;;;;;12.44;98.59;100926.47;4870850;29;20055;-87
2021/12/31 02:12:05;;;;;;;8.45;2.50;;;;;;;12.51;99.21;100949.16;4877625;29;20063;-88
2021/12/31 02:14:33;;;;;;;4.32;2.10;;;;;;;12.39;99.25;100928.50;4853485;29;20061;-88
2021/12/31 02:17:00;;;;;;;6.93;2.22;;;;;;;12.63;98.87;100959.22;4874797;29;20117;-87
2021/12/31 02:19:28;;;;;;;6.32;2.20;;;;;;;12.60;98.62;100965.53;4855356;29;20076;-87
2021/12/31 02:21:55;;;;;;;4.47;1.90;;;;;;;12.43;98.78;100927.41;4873761;29;20136;-87
2021/12/31 02:24:23;;;;;;;6.82;2.28;;;;;;;12.48;98.48;100944.84;4867596;29;20147;-88
2021/12/31 02:26:51;;;;;;;2.90;2.13;;;;;;;12.49;97.96;100924.47;4884305;29;20090;-85
2021/12/31 02:29:18;;;;;;;6.30;2.30;;;;;;;12.63;98.37;100953.91;4880334;29;20080;-88
2021/12/31 02:31:45;;;;;;;5.18;2.17;;;;;;;12.55;98.43;100942.78;4881746;29;20128;-88
2021/12/31 02:34:12;;;;;;;7.30;2.38;;;;;;;12.44;98.05;100923.81;4885131;29;20497;-88
2021/12/31 02:36:39;;;;;;;7.13;2.63;;;;;;;12.55;97.90;100934.81;4883004;29;20049;-88
2021/12/31 02:39:06;;;;;;;8.68;2.60;;;;;;;12.52;97.96;100934.94;4869397;29;20084;-89
2021/12/31 02:41:32;;;;;;;4.95;2.30;;;;;;;12.58;98.38;100947.97;4883154;29;20056;-89
2021/12/31 02:43:59;;;;;;;5.78;2.50;;;;;;;12.60;97.83;100959.34;4884665;29;20057;-88
2021/12/31 02:46:26;;;;;;;8.80;2.50;;;;;;;12.50;97.83;100934.16;4880555;29;20413;-88
2021/12/31 02:48:57;;;;;;;8.05;2.38;;;;;;;12.51;97.14;100938.53;4881028;29;20076;-86
2021/12/31 02:51:27;;;;;;;5.28;2.25;;;;;;;12.68;97.57;100975.81;4878954;29;20057;-89
2021/12/31 02:53:55;;;;;;;7.65;2.35;;;;;;;12.52;97.18;100935.81;4882486;29;20109;-89
2021/12/31 02:56:23;;;;;;;7.43;2.72;;;;;;;12.51;97.24;100943.84;4881759;29;20116;-88
2021/12/31 02:59:02;;;;;;;6.65;2.03;;;;;;;12.64;97.06;100966.25;4881959;29;20143;-88
2021/12/31 03:01:30;;;;;;;6.97;2.55;;;;;;;12.48;97.07;100941.34;4874963;29;20052;-88
2021/12/31 03:03:57;;;;;;;5.82;2.03;;;;;;;12.38;96.81;100926.75;4880801;29;20057;-89
2021/12/31 03:06:24;;;;;;;5.15;2.28;;;;;;;12.63;96.85;100975.16;4879149;29;20391;-87
2021/12/31 03:08:54;;;;;;;5.05;2.30;;;;;;;12.52;96.33;100949.09;4872642;29;20049;-88
2021/12/31 03:11:21;;;;;;;5.13;2.20;;;;;;;12.45;96.45;100938.81;4879940;29;20041;-88
2021/12/31 03:13:51;;;;;;;9.25;2.30;;;;;;;12.65;96.39;100967.97;4881111;29;20462;-88
2021/12/31 03:16:22;;;;;;;7.60;2.28;;;;;;;12.63;94.91;100936.16;4870033;29;20117;-88
2021/12/31 03:18:50;;;;;;;9.45;2.33;;;;;;;12.59;95.25;100942.56;4876225;29;20113;-88
2021/12/31 03:21:23;;;;;;;5.60;2.10;;;;;;;12.62;95.56;100953.03;4874939;29;20097;-88
2021/12/31 03:23:52;;;;;;;5.65;2.00;;;;;;;12.30;95.74;100898.75;4878966;29;20476;-88
2021/12/31 03:26:20;;;;;;;5.90;2.40;;;;;;;12.47;96.21;100921.88;4882446;29;20144;-88
2021/12/31 03:28:48;;;;;;;6.32;2.42;;;;;;;12.57;95.52;100944.44;4881230;29;20492;-88
2021/12/31 03:31:14;;;;;;;6.60;2.85;;;;;;;12.58;95.93;100945.31;4876329;29;20077;-88
2021/12/31 03:33:41;;;;;;;4.85;2.03;;;;;;;12.54;96.41;100946.38;4883496;29;20564;-88
2021/12/31 03:36:08;;;;;;;7.55;2.30;;;;;;;12.54;95.99;100944.59;4884899;29;20120;-88
2021/12/31 03:38:35;;;;;;;5.82;2.30;;;;;;;12.45;96.28;100933.50;4885174;29;20056;-89
2021/12/31 03:41:02;;;;;;;5.93;2.15;;;;;;;12.39;95.83;100916.06;4882257;29;20109;-89
2021/12/31 03:43:29;;;;;;;5.53;2.13;;;;;;;12.44;96.00;100929.13;4883917;29;20045;-88
2021/12/31 03:45:56;;;;;;;6.38;2.45;;;;;;;12.49;95.51;100935.09;4876626;29;20057;-88
2021/12/31 03:48:23;;;;;;;4.75;2.22;;;;;;;12.41;95.84;100927.50;4881160;29;20053;-89
2021/12/31 03:50:50;;;;;;;6.15;2.50;;;;;;;12.46;96.21;100932.56;4876573;29;20084;-88
2021/12/31 03:53:17;;;;;;;4.95;2.60;;;;;;;12.23;96.54;100896.47;4881724;29;20045;-89
2021/12/31 03:55:44;;;;;;;7.40;2.63;;;;;;;12.35;96.56;100927.75;4884173;29;20066;-88
2021/12/31 03:58:11;;;;;;;5.63;2.22;;;;;;;12.07;96.77;100888.34;4883874;29;20049;-88
2021/12/31 04:00:38;;;;;;;6.15;2.15;;;;;;;12.10;97.14;100892.66;4879745;29;20365;-88
2021/12/31 04:03:08;;;;;;;2.85;2.20;;;;;;;12.26;96.94;100915.78;4892959;29;20144;-88
2021/12/31 04:05:40;;;;;;;4.28;2.50;;;;;;;12.27;97.25;100922.81;4893849;29;20049;-88
2021/12/31 04:08:08;;;;;;;7.55;2.67;;;;;;;12.30;97.42;100932.41;4891052;29;20053;-88
2021/12/31 04:10:35;;;;;;;5.45;2.50;;;;;;;12.02;97.55;100892.97;4876418;29;20041;-88
2021/12/31 04:13:03;;;;;;;5.88;2.67;;;;;;;12.18;97.64;100920.56;4881490;29;20454;-88
2021/12/31 04:15:30;;;;;;;5.18;2.20;;;;;;;12.00;97.85;100886.00;4883366;29;20064;-88
2021/12/31 04:17:56;;;;;;;4.88;2.30;;;;;;;11.86;98.11;100865.41;4878013;29;20049;-88
2021/12/31 04:20:44;;;;;;;6.47;2.60;;;;;;;11.79;98.52;100854.22;4876945;29;20053;-88
2021/12/31 04:23:28;;;;;;;6.53;2.72;;;;;;;11.94;98.40;100887.16;4879289;29;20057;-88
2021/12/31 04:25:57;;;;;;;6.80;2.58;;;;;;;12.01;98.33;100904.53;4867704;29;20219;-88
2021/12/31 04:28:25;;;;;;;6.78;3.05;;;;;;;12.02;98.32;100910.69;4879252;29;20097;-88
2021/12/31 04:30:52;;;;;;;7.13;2.72;;;;;;;11.92;98.34;100908.47;4878181;29;20140;-89
2021/12/31 04:33:19;;;;;;;6.30;2.80;;;;;;;11.75;98.56;100888.88;4878531;29;20132;-88
2021/12/31 04:38:53;;;;;;;6.60;2.63;;;;;;;11.87;99.40;100923.72;4864364;29;20057;-88
2021/12/31 04:41:20;;;;;;;6.45;2.53;;;;;;;11.60;99.18;100882.44;4872360;29;20109;-90
2021/12/31 04:43:47;;;;;;;3.90;2.55;;;;;;;11.46;99.65;100868.91;4886218;29;20064;-88
2021/12/31 04:46:13;;;;;;;4.85;2.83;;;;;;;11.45;100.00;100878.66;4875421;29;20057;-87
2021/12/31 04:48:40;;;;;;;4.60;2.65;;;;;;;11.35;100.00;100873.81;4886209;29;20060;-88
2021/12/31 04:51:07;;;;;;;5.63;3.10;;;;;;;11.40;100.00;100898.34;4874665;29;20574;-88
2021/12/31 04:53:34;;;;;;;4.55;2.55;;;;;;;11.40;100.00;100915.13;4876312;29;20044;-87
2021/12/31 04:56:00;;;;;;;10.25;3.35;;;;;;;11.22;100.00;100879.63;4880456;29;20053;-88
2021/12/31 04:58:27;;;;;;;5.97;3.00;;;;;;;11.21;100.00;100885.00;4879974;29;20049;-88
2021/12/31 05:00:54;;;;;;;4.28;3.15;;;;;;;11.02;100.00;100862.84;4874531;29;20085;-88
2021/12/31 05:03:21;;;;;;;8.57;3.20;;;;;;;11.35;100.00;100900.31;4875292;29;20132;-88
2021/12/31 05:05:48;;;;;;;5.90;3.47;;;;;;;11.17;100.00;100865.72;4876363;29;20057;-88
2021/12/31 05:08:14;;;;;;;6.75;2.75;;;;;;;11.31;100.00;100882.84;4884874;29;20109;-89
2021/12/31 05:10:41;;;;;;;7.53;3.33;;;;;;;11.33;100.00;100888.94;4877571;29;20108;-87
2021/12/31 05:13:10;;;;;;;6.13;3.13;;;;;;;11.32;100.00;100888.06;4874805;29;20057;-89
2021/12/31 05:15:44;;;;;;;8.25;3.40;;;;;;;11.38;100.00;100877.19;4856364;29;20071;-88
2021/12/31 05:18:11;;;;;;;6.95;3.30;;;;;;;11.44;100.00;100881.38;4874315;29;20113;-88
2021/12/31 05:20:38;;;;;;;6.38;3.38;;;;;;;11.46;100.00;100892.78;4870654;29;20142;-88
2021/12/31 05:23:05;;;;;;;9.40;4.13;;;;;;;11.59;100.00;100908.09;4870428;29;20057;-88
2021/12/31 05:25:32;;;;;;;7.35;3.50;;;;;;;11.82;100.00;100931.00;4873537;29;20067;-88
2021/12/31 05:27:59;;;;;;;9.35;3.53;;;;;;;11.73;100.00;100918.13;4873153;29;20056;-86
2021/12/31 05:30:25;;;;;;;7.05;3.58;;;;;;;11.72;100.00;100921.69;4875672;29;20097;-87
2021/12/31 05:32:53;;;;;;;7.07;3.70;;;;;;;11.37;100.00;100880.75;4873779;29;20049;-87
2021/12/31 05:35:20;;;;;;;5.97;3.80;;;;;;;11.52;100.00;100911.94;4868962;29;20075;-87
2021/12/31 05:37:46;;;;;;;6.00;3.60;;;;;;;11.56;100.00;100921.50;4871631;29;20145;-87
2021/12/31 05:40:13;;;;;;;5.40;3.40;;;;;;;11.50;100.00;100921.75;4871726;29;20124;-88
2021/12/31 05:42:40;;;;;;;7.78;3.10;;;;;;;11.45;100.00;100923.75;4872574;29;20053;-88
2021/12/31 05:45:09;;;;;;;3.92;2.97;;;;;;;11.31;100.00;100919.94;4870166;29;20108;-88
2021/12/31 05:47:37;;;;;;;5.63;3.13;;;;;;;11.29;100.00;100927.09;4876777;29;20057;-88
2021/12/31 05:50:08;;;;;;;7.85;3.92;;;;;;;11.16;100.00;100921.44;4876233;29;20105;-87
2021/12/31 05:52:35;;;;;;;8.60;3.60;;;;;;;11.22;100.00;100939.72;4878119;29;20068;-87
2021/12/31 05:55:01;;;;;;;6.88;3.60;;;;;;;11.01;100.00;100900.88;4875847;29;20134;-87
2021/12/31 05:57:28;;;;;;;10.25;3.90;;;;;;;11.04;100.00;100911.31;4874590;29;20084;-87
2021/12/31 05:59:55;;;;;;;6.30;3.53;;;;;;;11.22;100.00;100937.94;4867544;29;20057;-88
2021/12/31 06:02:22;;;;;;;7.65;4.20;;;;;;;11.17;100.00;100928.47;4870278;29;20059;-86
2021/12/31 06:04:49;;;;;;;6.60;3.72;;;;;;;11.08;100.00;100912.94;4875216;29;20052;-87
2021/12/31 06:07:15;;;;;;;8.10;3.90;;;;;;;11.14;100.00;100944.50;4863071;29;20175;-86
2021/12/31 06:09:42;;;;;;;8.75;3.85;;;;;;;10.99;100.00;100926.56;4876978;29;20060;-87
2021/12/31 06:12:09;;;;;;;6.93;4.10;;;;;;;10.80;100.00;100887.56;4881248;29;20045;-87
2021/12/31 06:14:36;;;;;;;7.15;4.15;;;;;;;10.81;100.00;100889.28;4880992;29;20127;-87
2021/12/31 06:17:06;;;;;;;7.18;4.07;;;;;;;11.00;100.00;100915.03;4882687;29;20127;-88
2021/12/31 06:19:35;;;;;;;9.95;4.28;;;;;;;10.98;100.00;100928.34;4879597;29;20064;-87
2021/12/31 06:22:02;;;;;;;10.20;4.00;;;;;;;11.05;100.00;100923.66;4869843;29;20470;-88
2021/12/31 06:24:28;;;;;;;10.68;4.75;;;;;;;10.86;100.00;100895.25;4873905;29;20056;-88
2021/12/31 06:26:55;;;;;;;6.50;3.88;;;;;;;10.93;100.00;100919.72;4871196;29;20119;-87
2021/12/31 06:29:22;;;;;;;9.45;4.72;;;;;;;10.73;100.00;100891.34;4871689;29;20155;-89
2021/12/31 06:31:48;;;;;;;8.75;4.75;;;;;;;10.78;100.00;100912.38;4862859;29;20093;-87
2021/12/31 06:34:15;;;;;;;7.32;4.63;;;;;;;10.91;100.00;100937.47;4861320;29;20053;-86
2021/12/31 06:36:42;;;;;;;8.35;4.55;;;;;;;10.89;100.00;100932.22;4863192;29;20056;-88
2021/12/31 06:39:09;;;;;;;7.85;4.43;;;;;;;10.79;100.00;100914.97;4864073;29;20057;-87
2021/12/31 06:41:35;;;;;;;7.03;4.80;;;;;;;10.79;100.00;100917.63;4857279;29;20485;-87
2021/12/31 06:44:02;;;;;;;9.98;5.18;;;;;;;10.71;100.00;100903.78;4862870;29;20534;-87
2021/12/31 06:46:29;;;;;;;8.75;4.47;;;;;;;10.81;100.00;100922.88;4866358;29;20541;-87
2021/12/31 06:48:55;;;;;;;7.25;4.50;;;;;;;10.75;100.00;100931.03;4870142;29;20453;-89
2021/12/31 06:51:22;;;;;;;6.03;4.30;;;;;;;10.80;100.00;100939.69;4865980;29;20059;-87
2021/12/31 06:53:49;;;;;;;13.45;5.05;;;;;;;10.79;100.00;100949.41;4873820;29;20585;-87
2021/12/31 06:56:15;;;;;;;10.13;5.15;;;;;;;10.72;100.00;100936.44;4869482;29;20079;-87
2021/12/31 06:58:44;;;;;;;7.25;4.90;;;;;;;10.55;100.00;100905.31;4869965;29;20080;-86
2021/12/31 07:01:13;;;;;;;8.65;4.63;;;;;;;10.57;100.00;100911.41;4867931;29;20078;-87
2021/12/31 07:03:40;;;;;;;10.88;4.82;;;;;;;10.63;100.00;100936.81;4871156;29;20145;-86
2021/12/31 07:06:07;;;;;;;8.35;4.97;;;;;;;10.63;100.00;100927.09;4872922;29;20411;-87
2021/12/31 07:08:34;;;;;;;12.20;5.55;;;;;;;10.60;100.00;100929.84;4869272;29;20083;-87
2021/12/31 07:11:00;;;;;;;7.68;4.78;;;;;;;10.51;100.00;100927.56;4861684;29;20059;-86
2021/12/31 07:13:27;;;;;;;9.15;4.90;;;;;;;10.55;100.00;100945.91;4868412;29;20053;-87
2021/12/31 07:15:54;;;;;;;8.65;4.75;;;;;;;10.46;100.00;100929.50;4869297;29;20069;-87
2021/12/31 07:18:22;;;;;;;9.48;5.25;;;;;;;10.50;100.00;100936.44;4871301;29;20056;-89
2021/12/31 07:20:49;;;;;;;8.07;5.05;;;;;;;10.53;100.00;100929.25;4870824;29;20144;-88
2021/12/31 07:23:21;;;;;;;7.90;5.33;;;;;;;10.37;100.00;100906.06;4871394;29;20061;-86
2021/12/31 07:25:48;;;;;;;8.18;4.80;;;;;;;10.46;100.00;100918.94;4872061;29;20081;-86
2021/12/31 07:28:16;;;;;;;9.20;5.07;;;;;;;10.51;100.00;100931.06;4870942;29;20545;-86
2021/12/31 07:30:46;;;;;;;10.40;4.68;;;;;;;10.39;100.00;100925.38;4870024;29;20053;-87
2021/12/31 07:33:21;;;;;;;9.80;5.43;;;;;;;10.44;100.00;100918.97;4870415;29;20153;-85
2021/12/31 07:35:49;;;;;;;9.70;5.25;;;;;;;10.42;100.00;100927.91;4873792;29;20056;-87
2021/12/31 07:38:20;;;;;;;11.43;5.32;;;;;;;10.48;100.00;100927.69;4871923;29;20141;-86
2021/12/31 07:40:50;;;;;;;9.63;5.13;;;;;;;10.44;100.00;100934.00;4873635;29;20121;-86
2021/12/31 07:43:18;;;;;;;9.80;5.00;;;;;;;10.52;100.00;100934.59;4873395;29;20080;-87
2021/12/31 07:45:45;;;;;;;10.05;4.80;;;;;;;10.46;100.00;100929.50;4872461;29;20057;-87
2021/12/31 07:48:12;;;;;;;6.82;4.95;;;;;;;10.35;100.00;100926.41;4875666;29;20055;-89
2021/12/31 07:50:39;;;;;;;8.05;5.30;;;;;;;10.30;100.00;100926.59;4872113;29;20073;-86
2021/12/31 07:53:06;;;;;;;8.93;4.60;;;;;;;10.15;100.00;100904.16;4875790;29;20057;-86
2021/12/31 07:55:34;;;;;;;8.75;4.78;;;;;;;10.25;100.00;100925.88;4872626;29;20061;-86
2021/12/31 07:58:02;;;;;;;6.00;4.70;;;;;;;10.30;100.00;100934.53;4871810;29;20152;-86
2021/12/31 08:00:29;;;;;;;7.93;4.65;;;;;;;10.39;100.00;100941.28;4873977;29;20144;-86
2021/12/31 08:02:57;;;;;;;7.78;5.13;;;;;;;10.44;100.00;100952.53;4877716;29;20064;-86
2021/12/31 08:05:25;;;;;;;8.60;5.15;;;;;;;10.33;100.00;100933.56;4865044;29;20060;-86
2021/12/31 08:07:52;;;;;;;8.65;4.80;;;;;;;10.44;100.00;100947.25;4873758;29;20067;-86
2021/12/31 08:10:20;;;;;;;7.07;4.53;;;;;;;10.37;100.00;100933.38;4873705;29;20057;-87
2021/12/31 08:13:06;;;;;;;9.27;5.05;;;;;;;10.37;100.00;100930.75;4873803;29;20048;-85
2021/12/31 08:15:33;;;;;;;10.63;5.20;;;;;;;10.47;100.00;100940.06;4868523;29;20139;-86
2021/12/31 08:18:00;;;;;;;9.93;4.10;;;;;;;10.38;100.00;100919.22;4873474;29;20796;-85
2021/12/31 08:20:30;;;;;;;7.40;4.32;;;;;;;10.47;100.00;100920.66;4876212;29;20116;-87
2021/12/31 08:23:09;;;;;;;4.97;4.25;;;;;;;10.70;100.00;100944.47;4873222;29;20049;-86
2021/12/31 08:25:36;;;;;;;11.60;5.00;;;;;;;10.68;100.00;100942.81;4873492;29;20053;-85
2021/12/31 08:28:04;;;;;;;7.97;4.55;;;;;;;10.69;100.00;100936.59;4869447;29;20045;-85
2021/12/31 08:30:31;;;;;;;5.88;4.03;;;;;;;10.62;100.00;100927.16;4867225;29;20056;-86
2021/12/31 08:32:57;;;;;;;6.30;4.40;;;;;;;10.75;100.00;100937.19;4869020;29;20143;-85
2021/12/31 08:35:27;;;;;;;8.65;4.47;;;;;;;10.90;100.00;100951.63;4870209;29;21315;-86
2021/12/31 08:37:54;;;;;;;8.20;4.90;;;;;;;10.82;100.00;100935.19;4871058;29;20064;-85
2021/12/31 08:40:20;;;;;;;7.68;4.57;;;;;;;10.69;100.00;100910.09;4877043;29;20148;-85
2021/12/31 08:42:47;;;;;;;8.25;4.75;;;;;;;10.85;100.00;100948.31;4866622;29;20303;-85
2021/12/31 08:45:18;;;;;;;8.13;5.00;;;;;;;10.80;100.00;100935.25;4880336;29;20053;-85
2021/12/31 08:47:45;;;;;;;7.18;4.65;;;;;;;10.59;100.00;100887.53;4868158;29;20524;-84
2021/12/31 08:50:12;;;;;;;7.47;4.63;;;;;;;10.98;100.00;100938.97;4878041;29;20081;-85
2021/12/31 08:52:39;;;;;;;6.00;4.50;;;;;;;10.90;100.00;100931.28;4874299;29;20136;-86
2021/12/31 08:55:08;;;;;;;7.93;4.60;;;;;;;10.72;100.00;100905.53;4877696;29;20063;-86
2021/12/31 08:57:36;;;;;;;7.40;4.50;;;;;;;10.99;100.00;100945.97;4878687;29;20152;-88
2021/12/31 09:00:05;;;;;;;8.65;5.03;;;;;;;11.06;100.00;100955.41;4874564;29;20064;-88
2021/12/31 09:02:32;;;;;;;6.68;3.85;;;;;;;11.06;100.00;100946.59;4871760;29;20131;-88
2021/12/31 09:05:06;;;;;;;5.68;4.30;;;;;;;10.90;100.00;100926.00;4877039;29;20525;-87
2021/12/31 09:07:33;;;;;;;8.57;4.30;;;;;;;11.02;100.00;100937.88;4878037;29;20080;-87
2021/12/31 09:10:00;;;;;;;8.32;4.28;;;;;;;10.92;100.00;100917.13;4855841;29;20136;-87
2021/12/31 09:12:27;;;;;;;6.78;4.47;;;;;;;11.18;100.00;100961.97;4877376;29;20139;-88
2021/12/31 09:14:54;;;;;;;8.40;4.15;;;;;;;11.12;100.00;100941.03;4876012;29;20512;-88
2021/12/31 09:17:22;;;;;;;7.43;4.30;;;;;;;11.11;100.00;100934.03;4877347;29;20415;-88
2021/12/31 09:19:50;;;;;;;5.93;4.28;;;;;;;10.95;99.89;100904.63;4875494;29;20235;-88
2021/12/31 09:22:16;;;;;;;8.23;4.10;;;;;;;11.23;98.94;100928.22;4868478;29;20076;-88
2021/12/31 09:24:43;;;;;;;5.97;4.20;;;;;;;11.10;98.75;100911.09;4869713;29;20088;-88
2021/12/31 09:27:10;;;;;;;7.65;4.30;;;;;;;11.31;98.39;100938.50;4869259;29;20516;-86
2021/12/31 09:29:40;;;;;;;8.05;4.30;;;;;;;11.37;98.54;100947.06;4872081;29;20071;-87
2021/12/31 09:32:08;;;;;;;7.77;4.00;;;;;;;11.20;97.83;100920.38;4865257;29;20057;-86
2021/12/31 09:34:35;;;;;;;6.55;4.20;;;;;;;11.05;98.07;100890.06;4847885;29;20542;-88
2021/12/31 09:37:01;;;;;;;9.05;4.15;;;;;;;11.30;97.99;100927.03;4869679;29;20056;-87
2021/12/31 09:39:28;;;;;;;6.47;4.25;;;;;;;11.33;97.82;100926.06;4867370;29;20575;-89
2021/12/31 09:41:58;;;;;;;8.70;4.05;;;;;;;11.31;97.42;100920.81;4862191;29;20056;-90
2021/12/31 09:44:27;;;;;;;8.27;3.90;;;;;;;11.57;97.45;100956.84;4876933;29;20059;-87
2021/12/31 09:46:54;;;;;;;7.40;4.35;;;;;;;11.22;96.74;100889.38;4866383;29;20156;-86
2021/12/31 09:49:21;;;;;;;6.00;4.30;;;;;;;11.58;96.70;100930.25;4865762;29;20077;-87
2021/12/31 09:51:48;;;;;;;8.45;4.50;;;;;;;11.79;95.33;100954.19;4864681;29;20128;-87
2021/12/31 09:54:17;;;;;;;6.32;4.20;;;;;;;11.84;95.28;100952.16;4865924;29;20056;-86
2021/12/31 09:56:43;;;;;;;8.55;4.50;;;;;;;11.87;95.09;100955.56;4875349;29;20087;-87
2021/12/31 09:59:10;;;;;;;7.97;4.93;;;;;;;11.75;94.49;100934.84;4874300;29;20052;-87
2021/12/31 10:01:52;;;;;;;8.93;4.82;;;;;;;11.77;94.26;100943.63;4878715;29;20136;-87
2021/12/31 10:04:20;;;;;;;7.15;4.38;;;;;;;11.87;94.14;100965.31;4876089;29;20293;-85
2021/12/31 10:07:06;;;;;;;7.03;4.55;;;;;;;11.79;94.32;100965.66;4877433;29;20060;-86
2021/12/31 10:09:38;;;;;;;6.25;4.53;;;;;;;11.72;95.13;100981.84;4882225;29;20043;-87
2021/12/31 10:12:11;;;;;;;8.52;4.97;;;;;;;11.60;95.31;100962.88;4883006;29;20212;-87
2021/12/31 10:14:40;;;;;;;9.27;5.43;;;;;;;11.71;95.44;100972.16;4886153;29;20057;-86
2021/12/31 10:17:08;;;;;;;8.07;4.90;;;;;;;11.64;95.80;100968.94;4884625;29;20085;-86
2021/12/31 10:19:35;;;;;;;7.22;4.88;;;;;;;11.62;96.22;100961.97;4885968;29;20104;-86
2021/12/31 10:22:02;;;;;;;8.18;4.72;;;;;;;11.83;95.66;100975.19;4882458;29;20573;-85
2021/12/31 10:24:35;;;;;;;8.45;4.43;;;;;;;11.83;94.92;100961.94;4887791;29;20405;-85
2021/12/31 10:27:14;;;;;;;7.97;4.85;;;;;;;12.11;94.32;100982.84;4883857;29;20053;-84
2021/12/31 10:29:58;;;;;;;6.90;4.18;;;;;;;12.24;93.09;100976.06;4875805;29;20565;-85
2021/12/31 10:32:28;;;;;;;6.78;4.20;;;;;;;12.23;91.85;100962.84;4883000;29;20047;-85
2021/12/31 10:35:14;;;;;;;6.47;3.95;;;;;;;12.33;91.90;100963.28;4884248;29;20059;-85
2021/12/31 10:38:02;;;;;;;6.90;3.75;;;;;;;12.30;91.14;100956.31;4886727;29;20064;-84
2021/12/31 10:40:30;;;;;;;6.40;3.58;;;;;;;12.45;90.24;100979.53;4879078;29;20056;-86
2021/12/31 10:43:18;;;;;;;5.65;3.78;;;;;;;12.53;89.78;100977.38;4870772;29;20045;-87
2021/12/31 10:46:05;;;;;;;4.85;3.05;;;;;;;12.51;89.69;100978.38;4869469;29;20061;-84
2021/12/31 10:48:55;;;;;;;6.00;3.30;;;;;;;12.50;89.30;100976.66;4857422;29;20048;-87
2021/12/31 10:51:47;;;;;;;10.40;3.58;;;;;;;12.51;88.68;100965.09;4866484;29;20061;-85
2021/12/31 10:54:37;;;;;;;6.65;3.17;;;;;;;12.62;89.12;100970.78;4869312;29;20505;-88
2021/12/31 10:57:04;;;;;;;8.20;3.03;;;;;;;12.57;87.80;100940.94;4871721;29;20457;-87
2021/12/31 10:59:37;;;;;;;3.88;2.92;;;;;;;12.89;86.08;100963.34;4870745;29;20061;-86
2021/12/31 11:02:06;;;;;;;5.95;2.63;;;;;;;12.71;85.17;100916.34;4869649;29;20110;-86
2021/12/31 11:04:36;;;;;;;3.97;2.40;;;;;;;12.88;85.43;100943.00;4863772;29;20175;-91
2021/12/31 11:07:07;;;;;;;4.65;2.70;;;;;;;13.13;85.59;100975.44;4870213;29;20053;-87
2021/12/31 11:09:35;;;;;;;7.30;2.30;;;;;;;13.20;85.61;100952.97;4872464;29;20061;-88
2021/12/31 11:12:14;;;;;;;4.13;2.22;;;;;;;13.11;84.73;100905.50;4873657;29;20061;-89
2021/12/31 11:14:54;;;;;;;4.85;2.33;;;;;;;13.23;83.18;100912.03;4866024;29;20049;-90
2021/12/31 11:17:27;;;;;;;5.35;2.72;;;;;;;13.50;81.88;100926.66;4872973;29;20122;-90
2021/12/31 11:19:54;;;;;;;;;;;;;;;13.63;80.94;100953.50;4874491;29;20060;-89
2021/12/31 11:22:29;;;;;;;5.45;2.45;;;;;;;13.34;81.90;100915.91;4874681;29;19924;-91
2021/12/31 11:25:23;;;;;;;3.47;2.50;;;;;;;13.48;82.73;100944.47;4877230;29;20426;-87
2021/12/31 11:27:52;;;;;;;3.60;2.25;;;;;;;13.53;81.40;100936.28;4878579;29;20088;-89
2021/12/31 11:30:34;;;;;;;4.25;2.28;;;;;;;13.53;80.84;100921.19;4873186;29;20135;-88
2021/12/31 11:33:09;;;;;;;5.75;2.50;;;;;;;13.09;81.69;100845.38;4873482;29;20052;-90
2021/12/31 11:35:37;;;;;;;4.72;2.17;;;;;;;13.39;81.14;100897.03;4876365;29;20116;-88
2021/12/31 11:38:12;;;;;;;4.07;2.58;;;;;;;13.27;81.33;100889.69;4875870;29;20152;-88
2021/12/31 11:40:41;;;;;;;3.25;2.40;;;;;;;13.30;81.23;100894.84;4876239;29;21736;-87